Time;durP1;ratioP1;P1;durP2;ratioP2;P2;SDS_P1;SDS_P2;PMS_P1;PMS_P2;Temp;Humidity;BMP_temperature;BMP_pressure;BME280_temperature;BME280_humidity;BME280_pressure;Samples;Min_cycle;Max_cycle;Signal;HPM_P1;HPM_P2
2023/03/23 00:02:37;;;;;;;0.20;0.00;;;11.70;99.90;;;;;;21280149;27;20407;-70
2023/03/23 00:12:42;;;;;;;0.20;0.00;;;11.80;99.90;;;;;;21282810;27;20444;-72
2023/03/23 00:22:45;;;;;;;0.20;0.10;;;11.90;99.90;;;;;;21300622;27;20435;-71
2023/03/23 00:32:50;;;;;;;0.20;0.10;;;12.10;99.90;;;;;;21313410;27;20387;-70
2023/03/23 00:42:53;;;;;;;0.20;0.10;;;12.10;99.90;;;;;;21297861;27;20896;-70
2023/03/23 00:52:57;;;;;;;0.20;0.10;;;12.30;99.90;;;;;;21317329;27;20488;-70
2023/03/23 01:03:00;;;;;;;0.20;0.00;;;12.30;99.90;;;;;;21232302;27;20404;-70
2023/03/23 01:13:04;;;;;;;0.20;0.03;;;12.20;99.90;;;;;;21286236;27;20400;-68
2023/03/23 01:23:08;;;;;;;0.20;0.00;;;12.10;99.90;;;;;;21297980;27;20411;-68
2023/03/23 01:33:12;;;;;;;0.20;0.10;;;12.20;99.90;;;;;;21285085;27;20397;-69
2023/03/23 01:43:16;;;;;;;0.20;0.07;;;12.00;99.90;;;;;;21287638;27;20482;-69
2023/03/23 01:53:21;;;;;;;0.20;0.00;;;11.90;99.90;;;;;;21314234;27;20398;-70
2023/03/23 02:03:25;;;;;;;0.20;0.10;;;12.10;99.90;;;;;;21312736;27;20796;-70
2023/03/23 02:13:29;;;;;;;0.20;0.00;;;12.30;99.90;;;;;;21311811;27;20447;-70
2023/03/23 02:24:09;;;;;;;0.20;0.10;;;12.30;99.90;;;;;;21294179;27;20479;-69
2023/03/23 02:34:18;;;;;;;0.20;0.00;;;12.20;99.90;;;;;;21234345;27;20401;-69
2023/03/23 02:44:22;;;;;;;0.20;0.10;;;11.90;99.90;;;;;;21308778;27;20435;-69
2023/03/23 02:54:28;;;;;;;0.20;0.10;;;11.50;99.90;;;;;;21309186;27;20783;-69
2023/03/23 03:04:34;;;;;;;0.20;0.00;;;11.40;99.90;;;;;;21290739;27;20544;-70
2023/03/23 03:14:45;;;;;;;0.20;0.05;;;11.70;99.90;;;;;;21289997;27;20487;-69
2023/03/23 03:24:49;;;;;;;0.20;0.00;;;11.80;99.90;;;;;;21289182;27;20410;-69
2023/03/23 03:34:53;;;;;;;0.20;0.00;;;11.60;99.90;;;;;;21256664;27;20383;-70
2023/03/23 03:44:56;;;;;;;0.35;0.25;;;12.00;99.90;;;;;;21287531;27;20415;-71
2023/03/23 03:55:00;;;;;;;0.20;0.10;;;12.00;99.90;;;;;;21303149;27;20865;-71
2023/03/23 04:05:03;;;;;;;0.20;0.10;;;11.90;99.90;;;;;;21302687;27;20435;-69
2023/03/23 04:15:09;;;;;;;0.20;0.10;;;11.80;99.90;;;;;;21320872;27;20440;-69
2023/03/23 04:25:12;;;;;;;0.20;0.00;;;11.60;99.90;;;;;;21320005;27;20399;-69
2023/03/23 04:35:18;;;;;;;0.20;0.10;;;11.50;99.90;;;;;;21251652;27;20752;-69
2023/03/23 04:45:22;;;;;;;0.20;0.10;;;11.70;99.90;;;;;;21299872;27;20440;-70
2023/03/23 04:55:27;;;;;;;0.20;0.10;;;11.60;99.90;;;;;;21265118;27;20380;-71
2023/03/23 05:05:30;;;;;;;0.20;0.10;;;11.50;99.90;;;;;;21299227;27;20498;-70
2023/03/23 05:15:34;;;;;;;0.20;0.10;;;11.80;99.90;;;;;;21281376;27;20423;-70
2023/03/23 05:25:40;;;;;;;0.20;0.00;;;11.80;99.90;;;;;;21238841;27;20437;-70
2023/03/23 05:35:44;;;;;;;0.20;0.10;;;11.70;99.90;;;;;;21201084;27;20391;-70
2023/03/23 05:45:47;;;;;;;0.20;0.10;;;12.20;99.90;;;;;;21279739;27;20407;-69
2023/03/23 05:55:51;;;;;;;0.20;0.00;;;12.30;99.90;;;;;;21294911;27;20433;-68
2023/03/23 06:05:54;;;;;;;0.20;0.10;;;12.10;99.90;;;;;;21295978;27;20415;-70
2023/03/23 06:15:58;;;;;;;0.20;0.05;;;12.20;99.90;;;;;;21294337;27;20410;-71
2023/03/23 06:26:03;;;;;;;0.20;0.10;;;12.30;99.90;;;;;;21305311;27;20723;-71
2023/03/23 06:36:09;;;;;;;0.20;0.10;;;12.40;99.90;;;;;;21304031;27;20482;-71
2023/03/23 06:46:11;;;;;;;0.20;0.10;;;12.40;99.90;;;;;;21303486;27;20770;-70
2023/03/23 06:56:16;;;;;;;0.20;0.10;;;12.80;99.90;;;;;;21266050;27;20382;-70
2023/03/23 07:06:19;;;;;;;0.20;0.10;;;12.80;99.90;;;;;;21172652;27;20563;-69
2023/03/23 07:16:23;;;;;;;0.20;0.00;;;13.40;99.90;;;;;;21215329;27;1969539;-68
2023/03/23 07:26:25;;;;;;;0.20;0.00;;;14.10;99.90;;;;;;21226639;27;20440;-68
2023/03/23 07:36:30;;;;;;;0.20;0.10;;;14.70;99.90;;;;;;21216160;27;20478;-69
2023/03/23 07:46:33;;;;;;;0.20;0.10;;;15.20;99.90;;;;;;21301226;27;20877;-72
2023/03/23 07:56:39;;;;;;;0.20;0.10;;;15.40;99.90;;;;;;21283394;27;20391;-70
2023/03/23 08:06:42;;;;;;;0.20;0.10;;;15.50;99.90;;;;;;21299243;27;20407;-69
2023/03/23 08:16:46;;;;;;;0.20;0.10;;;15.70;99.90;;;;;;21280470;27;20457;-68
2023/03/23 08:26:49;;;;;;;0.20;0.03;;;15.50;99.90;;;;;;21297494;27;20505;-69
2023/03/23 08:36:53;;;;;;;0.20;0.10;;;15.50;99.90;;;;;;21297291;27;20893;-68
2023/03/23 08:46:56;;;;;;;0.20;0.07;;;15.70;99.90;;;;;;21279424;27;20444;-71
2023/03/23 08:57:02;;;;;;;0.20;0.10;;;16.10;99.90;;;;;;21297047;27;20391;-72
2023/03/23 09:07:05;;;;;;;0.20;0.10;;;16.50;99.90;;;;;;21236788;27;20929;-71
2023/03/23 09:17:09;;;;;;;0.20;0.10;;;16.20;99.90;;;;;;21274256;27;20435;-69
2023/03/23 09:27:16;;;;;;;0.20;0.00;;;16.30;99.90;;;;;;21312869;27;20414;-69
2023/03/23 09:37:20;;;;;;;0.20;0.00;;;17.00;99.90;;;;;;21292945;27;20467;-70
2023/03/23 09:47:28;;;;;;;0.20;0.10;;;17.30;99.90;;;;;;21189236;27;20409;-71
2023/03/23 09:57:38;;;;;;;0.20;0.00;;;17.20;99.90;;;;;;21200693;27;20401;-71
2023/03/23 10:07:41;;;;;;;0.20;0.10;;;17.40;99.90;;;;;;21232936;27;20414;-69
2023/03/23 10:17:52;;;;;;;0.20;0.10;;;18.30;99.90;;;;;;21325368;27;20422;-68
2023/03/23 10:28:03;;;;;;;0.20;0.10;;;18.20;99.90;;;;;;21306885;27;20441;-68
